Wellington, FL

12:59 AM EDT on July 01, 2015 (GMT -0400)
Indigo Weather | | Change Station
CLOSE
Current Station
Personal Weather Station
Location: Wellington, FL
Elevation: 23 ft
Nearby Weather Stations

Elev 23 ft 26.67 °N, 80.26 °W | Updated 13 minutes ago

Overcast
Overcast
69.5 °F
Feels Like 69.5 °F
N
0.0
Wind Variable Wind from ENE
Gusts 1.0 mph

Today
High -- | Low -- °F
--% Chance of Precip.
Yesterday
High -- | Low -- °F
Precip. -- in
6:31 AM 8:18 PM
Waxing Gibbous, 99% visible
Pressure 30.23 in
Visibility 5.0 miles
Clouds Scattered Clouds 2300 ft
Scattered Clouds 3800 ft
Overcast 5500 ft
Dew Point 49 °F
Humidity 48%
Rainfall 0.06 in
Snow Depth Not available.
UV 0 out of 12
Pollen 3.50 out of 12
Air Quality Not available.
Flu Activity Not available.
METAR KPBI 010353Z 36015KT 5SM -TSRA SCT023CB SCT038 OVC055 22/19 A3023 RMK AO2 PK WND 33037/0316 WSHFT 0309 RAB35 TSB46 SLP237 OCNL LTGICCC OHD-ALQDS TS OHD-ALQDS MOV SE P0002 T02220194

More Conditions Fewer Conditions

Pressure 30.23 in
Visibility 5.0 miles
Clouds Scattered Clouds 2300 ft
Scattered Clouds 3800 ft
Overcast 5500 ft
Dew Point 49 °F
Humidity 48%
Rainfall 0.06 in
Snow Depth Not available.
UV 0 out of 12
Pollen 3.50 out of 12
Air Quality Not available.
Flu Activity Not available.
METAR KPBI 010353Z 36015KT 5SM -TSRA SCT023CB SCT038 OVC055 22/19 A3023 RMK AO2 PK WND 33037/0316 WSHFT 0309 RAB35 TSB46 SLP237 OCNL LTGICCC OHD-ALQDS TS OHD-ALQDS MOV SE P0002 T02220194

More Conditions Fewer Conditions

10-Day Weather Forecast

×

Almanac

Astronomy

Jul. 01, 2015 Rise Set
Actual Time
Civil Twilight
Nautical Twilight
Astronomical Twilight
Moon
Length of Visible Light
Length of Day
Tomorrow will be .
, % of the Moon is Illuminated

Today's Extremes

State Highs State Lows

Community

WunderPhotos

Upload Photos

1,834,146 photos uploaded!

WunderBlogs® & News

Nearby

Air Quality

  Air Quality AQ Index Pollutant
Not available.

Snow Depth

Station Depth Elevation

Earthquake Activity

City Distance Mag. Time & Date
Minimum magnitude displayed is 2.5.

Coastal Water Temperatures

Place Temperature

Stations

Nearby Weather Stations

Station Location Temp. Windchill Dew Point Humidity Wind Precip. Elev Updated Type